createdAt,value
2022-08-28T00:01:57.515Z,16.40
2022-08-28T00:04:24.138Z,16.30
2022-08-28T00:06:50.755Z,16.40
2022-08-28T00:09:17.646Z,16.20
2022-08-28T00:11:47.069Z,16.20
2022-08-28T00:14:13.850Z,16.20
2022-08-28T00:16:42.066Z,16.20
2022-08-28T00:19:10.857Z,16.20
2022-08-28T00:21:37.512Z,16.20
2022-08-28T00:24:04.168Z,16.10
2022-08-28T00:26:49.413Z,16.10
2022-08-28T00:29:15.959Z,16.10
2022-08-28T00:31:42.541Z,16.10
2022-08-28T00:34:09.613Z,16.10
2022-08-28T00:36:37.094Z,16.00
2022-08-28T00:39:04.491Z,16.00
2022-08-28T00:41:31.718Z,16.00
2022-08-28T00:44:11.486Z,16.00
2022-08-28T00:46:40.045Z,16.00
2022-08-28T00:49:07.136Z,15.90
2022-08-28T00:51:55.750Z,15.90
2022-08-28T00:54:22.993Z,15.80
2022-08-28T00:56:50.043Z,15.80
2022-08-28T00:59:18.123Z,15.80
2022-08-28T01:01:46.013Z,15.80
2022-08-28T01:04:16.741Z,15.80
2022-08-28T01:06:46.125Z,15.80
2022-08-28T01:09:12.691Z,15.80
2022-08-28T01:11:44.059Z,15.70
2022-08-28T01:14:13.087Z,15.70
2022-08-28T01:16:40.994Z,15.70
2022-08-28T01:19:10.477Z,15.70
2022-08-28T01:21:43.180Z,15.70
2022-08-28T01:24:12.538Z,15.60
2022-08-28T01:26:39.338Z,15.60
2022-08-28T01:29:07.151Z,15.60
2022-08-28T01:31:34.319Z,15.60
2022-08-28T01:34:01.003Z,15.60
2022-08-28T01:36:29.044Z,15.60
2022-08-28T01:39:02.801Z,15.50
2022-08-28T01:41:29.579Z,15.50
2022-08-28T01:43:56.675Z,15.50
2022-08-28T01:46:23.237Z,15.50
2022-08-28T01:48:49.840Z,15.50
2022-08-28T01:51:19.417Z,15.40
2022-08-28T01:53:49.221Z,15.30
2022-08-28T01:56:16.747Z,15.40
2022-08-28T01:58:44.007Z,15.40
2022-08-28T02:01:11.246Z,15.40
2022-08-28T02:03:38.377Z,15.30
2022-08-28T02:06:05.152Z,15.40
2022-08-28T02:08:31.836Z,15.30
2022-08-28T02:10:58.865Z,15.20
2022-08-28T02:13:25.729Z,15.20
2022-08-28T02:15:54.695Z,15.20
2022-08-28T02:18:21.751Z,15.20
2022-08-28T02:20:48.315Z,15.20
2022-08-28T02:23:15.074Z,15.10
2022-08-28T02:25:41.774Z,15.10
2022-08-28T02:28:08.991Z,15.10
2022-08-28T02:30:36.281Z,15.10
2022-08-28T02:33:02.946Z,15.00
2022-08-28T02:35:29.864Z,15.00
2022-08-28T02:37:56.923Z,15.00
2022-08-28T02:40:24.070Z,15.00
2022-08-28T02:42:51.060Z,14.90
2022-08-28T02:45:18.299Z,14.90
2022-08-28T02:47:45.412Z,14.90
2022-08-28T02:50:14.857Z,14.90
2022-08-28T02:52:42.095Z,14.80
2022-08-28T02:55:09.403Z,14.80
2022-08-28T02:57:36.176Z,14.80
2022-08-28T03:00:07.291Z,14.80
2022-08-28T03:02:34.020Z,14.70
2022-08-28T03:05:00.849Z,14.60
2022-08-28T03:07:27.902Z,14.60
2022-08-28T03:09:55.960Z,14.60
2022-08-28T03:12:26.074Z,14.60
2022-08-28T03:14:53.291Z,14.60
2022-08-28T03:17:24.416Z,14.60
2022-08-28T03:19:51.658Z,14.50
2022-08-28T03:22:40.279Z,14.50
2022-08-28T03:25:09.255Z,14.50
2022-08-28T03:27:35.774Z,14.50
2022-08-28T03:30:02.763Z,14.50
2022-08-28T03:32:29.559Z,14.40
2022-08-28T03:34:56.136Z,14.30
2022-08-28T03:37:23.000Z,14.40
2022-08-28T03:39:49.813Z,14.40
2022-08-28T03:42:17.170Z,14.30
2022-08-28T03:44:45.969Z,14.30
2022-08-28T03:47:12.703Z,14.40
2022-08-28T03:49:40.687Z,14.30
2022-08-28T03:52:07.234Z,14.30
2022-08-28T03:54:33.846Z,14.20
2022-08-28T03:57:00.383Z,14.20
2022-08-28T03:59:31.676Z,14.20
2022-08-28T04:02:00.298Z,14.20
2022-08-28T04:04:26.838Z,14.20
2022-08-28T04:06:53.374Z,14.10
2022-08-28T04:09:19.923Z,14.10
2022-08-28T04:11:46.442Z,14.10
2022-08-28T04:14:12.970Z,14.10
2022-08-28T04:16:39.575Z,14.00
2022-08-28T04:19:06.171Z,14.00
2022-08-28T04:21:32.957Z,14.00
2022-08-28T04:23:59.516Z,14.00
2022-08-28T04:26:26.615Z,14.00
2022-08-28T04:28:55.111Z,14.00
2022-08-28T04:31:31.694Z,14.00
2022-08-28T04:34:02.658Z,14.00
2022-08-28T04:36:29.349Z,14.00
2022-08-28T04:38:57.323Z,14.00
2022-08-28T04:41:23.896Z,14.00
2022-08-28T04:43:52.623Z,14.00
2022-08-28T04:46:20.740Z,13.90
2022-08-28T04:48:47.304Z,13.90
2022-08-28T04:51:15.020Z,13.90
2022-08-28T04:53:41.893Z,13.90
2022-08-28T04:56:10.347Z,13.80
2022-08-28T04:58:37.765Z,13.80
2022-08-28T05:01:24.400Z,13.80
2022-08-28T05:03:52.992Z,13.80
2022-08-28T05:06:21.581Z,13.80
2022-08-28T05:08:48.175Z,13.80
2022-08-28T05:11:33.066Z,13.80
2022-08-28T05:14:00.706Z,13.80
2022-08-28T05:16:27.295Z,13.80
2022-08-28T05:18:53.883Z,13.80
2022-08-28T05:21:22.722Z,13.90
2022-08-28T05:23:50.161Z,13.90
2022-08-28T05:26:17.611Z,13.90
2022-08-28T05:28:44.142Z,13.90
2022-08-28T05:31:11.699Z,13.90
2022-08-28T05:33:38.386Z,13.90
2022-08-28T05:36:06.455Z,13.90
2022-08-28T05:38:34.538Z,14.00
2022-08-28T05:41:02.259Z,14.00
2022-08-28T05:43:29.536Z,14.10
2022-08-28T05:45:57.942Z,14.10
2022-08-28T05:48:27.613Z,14.20
2022-08-28T05:51:03.986Z,14.20
2022-08-28T05:53:30.507Z,14.20
2022-08-28T05:55:57.015Z,14.30
2022-08-28T05:58:29.564Z,14.30
2022-08-28T06:01:02.982Z,14.30
2022-08-28T06:03:29.503Z,14.40
2022-08-28T06:05:56.015Z,14.50
2022-08-28T06:08:23.196Z,14.50
2022-08-28T06:10:50.837Z,14.50
2022-08-28T06:13:17.581Z,14.60
2022-08-28T06:15:46.068Z,14.70
2022-08-28T06:18:13.941Z,14.70
2022-08-28T06:20:42.159Z,14.80
2022-08-28T06:23:13.064Z,14.80
2022-08-28T06:25:39.982Z,14.90
2022-08-28T06:28:07.550Z,15.00
2022-08-28T06:30:37.081Z,15.00
2022-08-28T06:33:07.486Z,15.10
2022-08-28T06:35:34.655Z,15.20
2022-08-28T06:38:01.858Z,15.30
2022-08-28T06:40:28.395Z,15.30
2022-08-28T06:42:55.184Z,15.60
2022-08-28T06:45:21.726Z,15.50
2022-08-28T06:47:48.246Z,15.70
2022-08-28T06:50:17.269Z,15.70
2022-08-28T06:52:43.916Z,16.00
2022-08-28T06:55:10.580Z,16.10
2022-08-28T06:57:38.322Z,16.30
2022-08-28T07:00:05.522Z,16.40
2022-08-28T07:02:32.590Z,16.50
2022-08-28T07:04:59.255Z,16.60
2022-08-28T07:07:32.541Z,16.70
2022-08-28T07:09:59.327Z,16.80
2022-08-28T07:12:25.866Z,16.90
2022-08-28T07:14:52.832Z,16.90
2022-08-28T07:17:19.437Z,17.00
2022-08-28T07:19:46.434Z,17.10
2022-08-28T07:22:12.959Z,17.20
2022-08-28T07:24:46.938Z,17.20
2022-08-28T07:27:18.919Z,17.30
2022-08-28T07:29:45.691Z,17.30
2022-08-28T07:32:14.171Z,17.40
2022-08-28T07:34:41.832Z,17.50
2022-08-28T07:37:11.131Z,17.60
2022-08-28T07:39:41.342Z,17.60
2022-08-28T07:42:29.321Z,17.60
2022-08-28T07:44:59.201Z,17.70
2022-08-28T07:47:31.664Z,17.70
2022-08-28T07:50:00.522Z,17.80
2022-08-28T07:52:27.916Z,17.90
2022-08-28T07:54:55.316Z,17.90
2022-08-28T07:57:22.811Z,18.00
2022-08-28T07:59:49.579Z,18.00
2022-08-28T08:02:18.260Z,18.00
2022-08-28T08:04:44.793Z,18.10
2022-08-28T08:07:12.801Z,18.20
2022-08-28T08:09:43.088Z,18.30
2022-08-28T08:12:10.952Z,18.50
2022-08-28T08:14:38.479Z,18.50
2022-08-28T08:17:07.547Z,18.70
2022-08-28T08:19:34.478Z,18.70
2022-08-28T08:22:02.210Z,18.80
2022-08-28T08:24:30.244Z,18.90
2022-08-28T08:27:00.149Z,18.90
2022-08-28T08:29:28.116Z,18.90
2022-08-28T08:31:55.802Z,19.10
2022-08-28T08:34:22.406Z,19.30
2022-08-28T08:36:48.957Z,19.40
2022-08-28T08:39:16.031Z,19.50
2022-08-28T08:41:51.060Z,19.50
2022-08-28T08:44:17.571Z,19.40
2022-08-28T08:46:56.387Z,19.40
2022-08-28T08:49:26.366Z,19.40
2022-08-28T08:51:52.863Z,19.50
2022-08-28T08:54:20.424Z,19.60
2022-08-28T08:56:47.451Z,19.70
2022-08-28T08:59:16.495Z,19.80
2022-08-28T09:01:45.976Z,19.90
2022-08-28T09:04:21.660Z,20.00
2022-08-28T09:06:54.185Z,20.10
2022-08-28T09:09:33.093Z,20.10
2022-08-28T09:12:01.663Z,20.20
2022-08-28T09:14:46.998Z,20.20
2022-08-28T09:17:16.398Z,20.20
2022-08-28T09:19:42.916Z,20.30
2022-08-28T09:22:09.442Z,20.40
2022-08-28T09:24:38.914Z,20.50
2022-08-28T09:27:27.498Z,20.50
2022-08-28T09:29:56.606Z,20.40
2022-08-28T09:32:30.953Z,20.50
2022-08-28T09:35:16.335Z,20.40
2022-08-28T09:37:46.110Z,20.40
2022-08-28T09:40:15.669Z,20.60
2022-08-28T09:43:15.115Z,20.70
2022-08-28T09:45:41.677Z,20.80
2022-08-28T09:48:19.139Z,21.00
2022-08-28T09:50:57.539Z,21.00
2022-08-28T09:53:27.013Z,21.10
2022-08-28T09:56:02.404Z,21.30
2022-08-28T09:58:36.702Z,21.30
2022-08-28T10:01:27.146Z,21.40
2022-08-28T10:04:15.396Z,21.50
2022-08-28T10:06:44.070Z,21.50
2022-08-28T10:09:21.839Z,21.50
2022-08-28T10:12:06.397Z,21.50
2022-08-28T10:14:47.563Z,21.50
2022-08-28T10:17:20.819Z,21.40
2022-08-28T10:20:11.540Z,21.30
2022-08-28T10:22:44.027Z,21.10
2022-08-28T10:25:16.422Z,21.10
2022-08-28T10:27:58.179Z,21.10
2022-08-28T10:30:24.874Z,21.10
2022-08-28T10:32:54.796Z,21.20
2022-08-28T10:35:26.906Z,21.10
2022-08-28T10:37:53.532Z,21.10
2022-08-28T10:40:26.367Z,21.20
2022-08-28T10:43:00.489Z,21.40
2022-08-28T10:45:27.794Z,21.50
2022-08-28T10:48:12.982Z,21.50
2022-08-28T10:50:42.514Z,21.60
2022-08-28T10:53:13.843Z,21.60
2022-08-28T10:55:51.607Z,21.70
2022-08-28T10:58:24.861Z,21.80
2022-08-28T11:00:57.249Z,21.70
2022-08-28T11:03:34.334Z,21.90
2022-08-28T11:06:22.123Z,22.00
2022-08-28T11:08:54.780Z,22.10
2022-08-28T11:11:40.659Z,22.10
2022-08-28T11:14:07.293Z,22.20
2022-08-28T11:16:33.838Z,22.30
2022-08-28T11:19:07.005Z,22.40
2022-08-28T11:21:36.343Z,22.40
2022-08-28T11:24:11.116Z,22.20
2022-08-28T11:26:46.924Z,22.10
2022-08-28T11:29:33.432Z,22.10
2022-08-28T11:32:23.244Z,22.30
2022-08-28T11:34:56.623Z,22.30
2022-08-28T11:37:43.293Z,22.40
2022-08-28T11:40:17.459Z,22.40
2022-08-28T11:42:48.504Z,22.50
2022-08-28T11:45:21.624Z,22.50
2022-08-28T11:47:52.066Z,22.50
2022-08-28T11:50:29.950Z,22.50
2022-08-28T11:53:05.686Z,22.50
2022-08-28T11:55:50.426Z,22.50
2022-08-28T11:58:24.949Z,22.70
2022-08-28T12:00:55.042Z,22.70
2022-08-28T12:03:27.524Z,22.60
2022-08-28T12:05:54.994Z,22.60
2022-08-28T12:08:40.462Z,22.60
2022-08-28T12:11:07.743Z,22.60
2022-08-28T12:13:47.040Z,22.60
2022-08-28T12:16:15.884Z,22.70
2022-08-28T12:18:42.888Z,22.60
2022-08-28T12:21:23.010Z,22.70
2022-08-28T12:23:58.871Z,22.70
2022-08-28T12:26:28.688Z,22.70
2022-08-28T12:28:55.256Z,22.70
2022-08-28T12:31:59.657Z,22.80
2022-08-28T12:34:43.985Z,22.90
2022-08-28T12:37:51.002Z,22.90
2022-08-28T12:40:22.633Z,22.90
2022-08-28T12:42:55.033Z,22.90
2022-08-28T12:45:30.692Z,22.80
2022-08-28T12:48:02.738Z,22.90
2022-08-28T12:50:32.493Z,22.90
2022-08-28T12:53:00.302Z,22.80
2022-08-28T12:55:27.450Z,22.80
2022-08-28T12:57:54.082Z,22.90
2022-08-28T13:00:23.063Z,22.90
2022-08-28T13:02:52.171Z,22.90
2022-08-28T13:05:24.831Z,22.90
2022-08-28T13:07:54.294Z,22.90
2022-08-28T13:10:31.254Z,22.90
2022-08-28T13:13:10.726Z,22.90
2022-08-28T13:15:55.084Z,23.00
2022-08-28T13:18:34.751Z,23.10
2022-08-28T13:21:33.152Z,23.00
2022-08-28T13:24:23.114Z,23.00
2022-08-28T13:26:59.156Z,23.10
2022-08-28T13:29:25.827Z,23.00
2022-08-28T13:32:17.180Z,23.20
2022-08-28T13:35:02.105Z,23.50
2022-08-28T13:37:46.000Z,24.20
2022-08-28T13:40:38.042Z,24.80
2022-08-28T13:43:03.731Z,25.40
2022-08-28T13:45:42.558Z,25.90
2022-08-28T13:48:11.120Z,26.00
2022-08-28T13:50:38.999Z,25.80
2022-08-28T13:53:07.078Z,25.80
2022-08-28T13:55:37.488Z,25.70
2022-08-28T13:58:04.246Z,25.60
2022-08-28T14:00:34.845Z,26.80
2022-08-28T14:03:23.584Z,27.70
2022-08-28T14:05:52.152Z,27.40
2022-08-28T14:08:19.061Z,26.80
2022-08-28T14:10:46.480Z,26.40
2022-08-28T14:13:13.238Z,26.50
2022-08-28T14:15:40.058Z,26.50
2022-08-28T14:18:08.598Z,27.30
2022-08-28T14:20:35.207Z,26.30
2022-08-28T14:23:01.971Z,26.70
2022-08-28T14:25:28.508Z,27.40
2022-08-28T14:27:55.814Z,28.30
2022-08-28T14:30:26.279Z,28.40
2022-08-28T14:32:56.051Z,29.10
2022-08-28T14:35:22.624Z,28.50
2022-08-28T14:37:49.504Z,27.80
2022-08-28T14:40:16.179Z,27.50
2022-08-28T14:42:43.000Z,27.20
2022-08-28T14:45:09.840Z,26.90
2022-08-28T14:47:39.128Z,27.00
2022-08-28T14:50:06.434Z,28.60
2022-08-28T14:52:33.082Z,29.20
2022-08-28T14:55:07.097Z,29.90
2022-08-28T14:57:37.923Z,30.40
2022-08-28T15:00:04.718Z,31.00
2022-08-28T15:02:31.271Z,31.80
2022-08-28T15:04:58.191Z,31.90
2022-08-28T15:07:24.807Z,29.80
2022-08-28T15:09:51.391Z,28.90
2022-08-28T15:12:18.456Z,28.60
2022-08-28T15:14:54.865Z,28.10
2022-08-28T15:17:24.277Z,27.70
2022-08-28T15:20:03.177Z,27.10
2022-08-28T15:22:29.742Z,26.80
2022-08-28T15:24:57.444Z,26.20
2022-08-28T15:27:23.984Z,26.00
2022-08-28T15:29:50.764Z,25.80
2022-08-28T15:32:17.334Z,25.80
2022-08-28T15:34:45.144Z,25.90
2022-08-28T15:37:13.468Z,26.50
2022-08-28T15:39:58.873Z,26.20
2022-08-28T15:42:26.023Z,28.10
2022-08-28T15:44:56.229Z,28.80
2022-08-28T15:47:24.849Z,29.60
2022-08-28T15:49:55.243Z,30.00
2022-08-28T15:52:22.705Z,30.30
2022-08-28T15:54:49.570Z,30.80
2022-08-28T15:57:16.390Z,31.10
2022-08-28T15:59:49.588Z,30.90
2022-08-28T16:02:22.902Z,31.50
2022-08-28T16:04:49.977Z,31.50
2022-08-28T16:07:17.204Z,32.00
2022-08-28T16:09:43.727Z,32.20
2022-08-28T16:12:11.834Z,32.00
2022-08-28T16:14:38.424Z,32.10
2022-08-28T16:17:10.608Z,31.90
2022-08-28T16:19:41.674Z,31.80
2022-08-28T16:22:11.661Z,32.10
2022-08-28T16:24:38.786Z,32.60
2022-08-28T16:27:06.112Z,32.40
2022-08-28T16:29:33.474Z,31.60
2022-08-28T16:32:02.307Z,31.70
2022-08-28T16:34:31.520Z,32.10
2022-08-28T16:37:00.049Z,32.00
2022-08-28T16:39:27.425Z,32.20
2022-08-28T16:41:54.096Z,32.00
2022-08-28T16:44:21.382Z,32.20
2022-08-28T16:46:48.798Z,32.30
2022-08-28T16:49:15.579Z,32.30
2022-08-28T16:51:42.101Z,31.80
2022-08-28T16:54:11.073Z,32.00
2022-08-28T16:56:37.652Z,31.90
2022-08-28T16:59:10.331Z,31.30
2022-08-28T17:01:38.232Z,31.30
2022-08-28T17:04:07.643Z,30.50
2022-08-28T17:06:37.654Z,30.60
2022-08-28T17:09:04.255Z,30.40
2022-08-28T17:11:31.064Z,29.90
2022-08-28T17:14:01.909Z,29.10
2022-08-28T17:16:31.371Z,28.10
2022-08-28T17:18:59.252Z,26.70
2022-08-28T17:21:44.337Z,26.30
2022-08-28T17:24:14.094Z,25.90
2022-08-28T17:26:41.616Z,25.30
2022-08-28T17:29:08.598Z,25.20
2022-08-28T17:31:40.362Z,25.10
2022-08-28T17:34:11.015Z,25.20
2022-08-28T17:36:39.108Z,24.90
2022-08-28T17:39:08.221Z,24.60
2022-08-28T17:41:35.419Z,24.40
2022-08-28T17:44:02.403Z,24.40
2022-08-28T17:46:30.210Z,24.30
2022-08-28T17:48:59.827Z,24.20
2022-08-28T17:51:40.357Z,23.90
2022-08-28T17:54:10.318Z,23.70
2022-08-28T17:56:36.830Z,23.60
2022-08-28T17:59:04.238Z,23.40
2022-08-28T18:01:30.867Z,23.20
2022-08-28T18:03:57.399Z,23.20
2022-08-28T18:06:24.194Z,23.10
2022-08-28T18:08:51.785Z,22.90
2022-08-28T18:11:19.005Z,22.80
2022-08-28T18:13:47.515Z,22.60
2022-08-28T18:16:14.138Z,22.60
2022-08-28T18:18:41.744Z,22.40
2022-08-28T18:21:12.219Z,22.40
2022-08-28T18:23:39.757Z,22.30
2022-08-28T18:26:07.138Z,22.20
2022-08-28T18:28:33.824Z,22.00
2022-08-28T18:31:03.446Z,22.00
2022-08-28T18:33:30.062Z,21.90
2022-08-28T18:35:56.828Z,21.80
2022-08-28T18:38:27.712Z,21.70
2022-08-28T18:40:57.778Z,21.60
2022-08-28T18:43:26.346Z,21.50
2022-08-28T18:45:53.198Z,21.30
2022-08-28T18:48:22.661Z,21.30
2022-08-28T18:50:50.313Z,21.20
2022-08-28T18:53:18.791Z,21.10
2022-08-28T18:55:45.840Z,21.00
2022-08-28T18:58:15.102Z,20.90
2022-08-28T19:00:42.976Z,20.80
2022-08-28T19:03:09.689Z,20.80
2022-08-28T19:05:37.945Z,20.70
2022-08-28T19:08:04.815Z,20.60
2022-08-28T19:10:34.708Z,20.50
2022-08-28T19:13:02.188Z,20.50
2022-08-28T19:15:29.346Z,20.40
2022-08-28T19:17:56.011Z,20.40
2022-08-28T19:20:22.616Z,20.40
2022-08-28T19:22:49.554Z,20.30
2022-08-28T19:25:25.735Z,20.10
2022-08-28T19:27:56.420Z,20.10
2022-08-28T19:30:26.523Z,20.00
2022-08-28T19:32:53.203Z,20.00
2022-08-28T19:35:19.791Z,19.90
2022-08-28T19:37:46.894Z,19.90
2022-08-28T19:40:13.951Z,19.80
2022-08-28T19:42:40.661Z,19.70
2022-08-28T19:45:08.137Z,19.70
2022-08-28T19:47:35.536Z,19.60
2022-08-28T19:50:03.198Z,19.60
2022-08-28T19:52:29.843Z,19.60
2022-08-28T19:54:57.747Z,19.60
2022-08-28T19:57:24.270Z,19.50
2022-08-28T19:59:50.794Z,19.40
2022-08-28T20:02:17.351Z,19.40
2022-08-28T20:04:43.907Z,19.40
2022-08-28T20:07:10.530Z,19.40
2022-08-28T20:09:37.073Z,19.30
2022-08-28T20:12:04.201Z,19.30
2022-08-28T20:14:30.826Z,19.30
2022-08-28T20:16:57.940Z,19.30
2022-08-28T20:19:24.527Z,19.20
2022-08-28T20:21:51.491Z,19.20
2022-08-28T20:24:23.556Z,19.20
2022-08-28T20:26:51.031Z,19.20
2022-08-28T20:29:18.122Z,19.10
2022-08-28T20:31:47.197Z,19.10
2022-08-28T20:34:15.039Z,19.00
2022-08-28T20:36:41.852Z,19.00
2022-08-28T20:39:09.257Z,19.10
2022-08-28T20:41:37.015Z,19.00
2022-08-28T20:44:12.620Z,19.00
2022-08-28T20:46:42.199Z,19.00
2022-08-28T20:49:13.019Z,18.90
2022-08-28T20:51:52.767Z,18.90
2022-08-28T20:54:23.694Z,18.90
2022-08-28T20:56:51.952Z,18.80
2022-08-28T20:59:19.152Z,18.80
2022-08-28T21:01:45.798Z,18.70
2022-08-28T21:04:12.347Z,18.70
2022-08-28T21:06:44.414Z,18.80
2022-08-28T21:09:10.947Z,18.70
2022-08-28T21:11:37.480Z,18.70
2022-08-28T21:14:04.000Z,18.70
2022-08-28T21:16:30.635Z,18.80
2022-08-28T21:19:15.240Z,18.60
2022-08-28T21:21:43.622Z,18.60
2022-08-28T21:24:11.142Z,18.60
2022-08-28T21:26:39.779Z,18.60
2022-08-28T21:29:09.702Z,18.50
2022-08-28T21:31:36.477Z,18.60
2022-08-28T21:34:03.098Z,18.60
2022-08-28T21:36:29.695Z,18.50
2022-08-28T21:38:56.655Z,18.60
2022-08-28T21:41:23.170Z,18.40
2022-08-28T21:43:49.878Z,18.50
2022-08-28T21:46:16.636Z,18.50
2022-08-28T21:48:43.292Z,18.50
2022-08-28T21:51:11.207Z,18.40
2022-08-28T21:53:39.026Z,18.30
2022-08-28T21:56:06.563Z,18.30
2022-08-28T21:58:34.086Z,18.20
2022-08-28T22:01:00.763Z,18.30
2022-08-28T22:03:28.106Z,18.30
2022-08-28T22:05:55.262Z,18.40
2022-08-28T22:08:22.974Z,18.30
2022-08-28T22:10:49.552Z,18.30
2022-08-28T22:13:16.322Z,18.30
2022-08-28T22:15:43.978Z,18.30
2022-08-28T22:18:11.414Z,18.40
2022-08-28T22:20:58.176Z,18.20
2022-08-28T22:23:25.154Z,18.20
2022-08-28T22:25:51.677Z,18.20
2022-08-28T22:28:18.242Z,18.20
2022-08-28T22:30:44.843Z,18.10
2022-08-28T22:33:11.498Z,18.10
2022-08-28T22:35:38.193Z,18.00
2022-08-28T22:38:04.778Z,18.00
2022-08-28T22:40:31.368Z,17.90
2022-08-28T22:42:58.132Z,17.90
2022-08-28T22:45:25.541Z,17.80
2022-08-28T22:47:52.613Z,17.70
2022-08-28T22:50:19.360Z,17.60
2022-08-28T22:52:46.794Z,17.60
2022-08-28T22:55:14.235Z,17.60
2022-08-28T22:57:40.875Z,17.50
2022-08-28T23:00:11.041Z,17.40
2022-08-28T23:02:38.160Z,17.30
2022-08-28T23:05:05.572Z,17.20
2022-08-28T23:07:32.279Z,17.20
2022-08-28T23:09:58.814Z,17.10
2022-08-28T23:12:25.481Z,17.10
2022-08-28T23:14:52.291Z,17.00
2022-08-28T23:17:18.898Z,17.00
2022-08-28T23:19:46.397Z,17.00
2022-08-28T23:22:13.153Z,17.00
2022-08-28T23:24:39.697Z,16.80
2022-08-28T23:27:32.485Z,16.80
2022-08-28T23:29:54.628Z,16.80
2022-08-28T23:32:21.574Z,16.70
2022-08-28T23:34:48.205Z,16.70
2022-08-28T23:37:15.182Z,16.60
2022-08-28T23:39:41.722Z,16.60
2022-08-28T23:42:08.363Z,16.50
2022-08-28T23:44:34.961Z,16.50
2022-08-28T23:47:01.919Z,16.40
2022-08-28T23:49:29.323Z,16.40
2022-08-28T23:51:56.000Z,16.30
2022-08-28T23:54:22.699Z,16.20
2022-08-28T23:56:49.230Z,16.30
2022-08-28T23:59:21.263Z,16.30
